createdAt,value
2022-10-04T07:37:07.397Z,4.53
2022-10-04T07:39:44.172Z,4.50
2022-10-04T07:42:26.538Z,4.00
2022-10-04T08:27:29.235Z,3.70
2022-10-04T08:30:11.168Z,3.90
2022-10-04T08:33:42.789Z,3.63
2022-10-04T08:36:24.203Z,3.10
2022-10-04T08:38:59.298Z,3.57
2022-10-04T08:41:35.438Z,3.37
2022-10-04T08:44:24.375Z,3.50
2022-10-04T08:47:29.408Z,2.83
2022-10-04T08:50:30.414Z,3.23
2022-10-04T08:53:16.654Z,4.10
2022-10-04T08:56:07.410Z,3.20
2022-10-04T08:59:22.007Z,3.57
2022-10-04T09:02:13.531Z,3.07
2022-10-04T09:04:57.407Z,3.33
2022-10-04T09:08:00.485Z,3.27
2022-10-04T09:10:35.287Z,3.40
2022-10-04T09:13:37.186Z,3.10
2022-10-04T09:16:25.095Z,3.33
2022-10-04T09:19:02.838Z,2.80
2022-10-04T09:21:38.883Z,2.90
2022-10-04T09:24:17.302Z,3.23
2022-10-04T09:27:12.999Z,3.33
2022-10-04T09:29:54.649Z,3.03
2022-10-04T09:32:31.036Z,2.90
2022-10-04T09:35:07.612Z,3.17
2022-10-04T09:37:43.612Z,3.10
2022-10-04T09:40:30.426Z,3.50
2022-10-04T10:31:24.838Z,3.30
2022-10-04T10:42:13.710Z,3.50
2022-10-04T10:45:09.288Z,3.10
2022-10-04T10:48:01.664Z,3.30
2022-10-04T10:51:03.640Z,3.30
2022-10-04T10:54:05.655Z,2.93
2022-10-04T10:56:56.757Z,2.80
2022-10-04T10:59:27.369Z,2.80
2022-10-04T11:02:48.178Z,4.27
2022-10-04T11:05:43.092Z,3.50
2022-10-04T11:08:19.906Z,3.13
2022-10-04T11:10:56.283Z,3.40
2022-10-04T11:14:01.028Z,3.23
2022-10-04T11:16:35.862Z,3.53
2022-10-04T11:19:40.151Z,3.33
2022-10-04T11:22:27.509Z,3.33
2022-10-04T11:25:11.665Z,3.43
2022-10-04T11:28:04.661Z,3.30
2022-10-04T11:30:40.557Z,3.10
2022-10-04T11:33:45.053Z,3.50
2022-10-04T11:36:30.280Z,3.33
2022-10-04T11:39:12.671Z,3.60
2022-10-04T11:42:04.912Z,3.93
2022-10-04T11:45:22.387Z,3.80
2022-10-04T11:48:01.131Z,2.90
2022-10-04T11:50:56.033Z,3.63
2022-10-04T11:53:42.439Z,3.80
2022-10-04T11:56:35.507Z,3.40
2022-10-04T11:59:18.356Z,3.50
2022-10-04T12:02:07.114Z,3.03
2022-10-04T12:05:00.704Z,2.40
2022-10-04T12:07:34.312Z,3.43
2022-10-04T12:10:19.892Z,3.00
2022-10-04T12:12:53.123Z,2.63
2022-10-04T12:15:49.327Z,2.47
2022-10-04T12:18:17.940Z,2.60
2022-10-04T12:21:02.968Z,3.83
2022-10-04T12:24:04.575Z,3.47
2022-10-04T12:27:00.542Z,2.80
2022-10-04T12:30:00.193Z,2.50
2022-10-04T12:33:04.254Z,2.60
2022-10-04T12:36:05.947Z,2.80
2022-10-04T12:39:13.244Z,3.00
2022-10-04T12:41:59.125Z,2.87
2022-10-04T12:44:52.374Z,2.70
2022-10-04T12:47:53.748Z,2.60
2022-10-04T12:50:42.768Z,2.40
2022-10-04T12:53:18.541Z,2.28
2022-10-04T12:56:09.759Z,2.35
2022-10-04T12:58:39.616Z,2.30
2022-10-04T13:01:45.293Z,2.63
2022-10-04T13:04:34.243Z,2.05
2022-10-04T13:07:19.787Z,2.97
2022-10-04T13:10:30.702Z,3.63
2022-10-04T13:13:08.312Z,2.25
2022-10-04T13:18:44.896Z,2.30
2022-10-04T13:21:22.561Z,10.73
2022-10-04T13:24:08.131Z,3.25
2022-10-04T13:26:35.191Z,3.15
2022-10-04T13:29:22.503Z,2.95
2022-10-04T13:32:04.608Z,3.42
2022-10-04T13:34:37.942Z,2.67
2022-10-04T13:37:23.545Z,2.80
2022-10-04T13:40:11.796Z,2.83
2022-10-04T13:42:41.700Z,2.90
2022-10-04T13:45:35.473Z,2.47
2022-10-04T13:48:21.670Z,2.88
2022-10-04T13:51:40.510Z,2.90
2022-10-04T13:54:55.391Z,2.80
2022-10-04T13:57:43.120Z,2.85
2022-10-04T14:00:15.499Z,2.90
2022-10-04T14:03:02.983Z,3.60
2022-10-04T14:06:24.272Z,3.30
2022-10-04T14:09:27.635Z,2.70
2022-10-04T14:12:03.223Z,2.72
2022-10-04T14:14:49.559Z,3.03
2022-10-04T14:17:28.634Z,2.90
2022-10-04T14:20:08.282Z,2.90
2022-10-04T14:23:02.302Z,2.90
2022-10-04T14:25:53.371Z,2.33
2022-10-04T14:28:44.596Z,2.10
2022-10-04T14:31:36.868Z,2.25
2022-10-04T14:34:13.463Z,2.80
2022-10-04T14:37:27.412Z,2.63
2022-10-04T14:40:12.333Z,2.92
2022-10-04T14:42:52.181Z,2.50
2022-10-04T14:45:28.046Z,2.30
2022-10-04T14:48:25.066Z,2.10
2022-10-04T14:50:58.207Z,2.55
2022-10-04T14:53:41.010Z,2.47
2022-10-04T14:56:39.789Z,2.80
2022-10-04T14:59:36.551Z,2.50
2022-10-04T15:02:34.333Z,2.92
2022-10-04T15:05:19.949Z,2.30
2022-10-04T15:08:12.133Z,2.78
2022-10-04T15:10:54.799Z,2.70
2022-10-04T15:13:48.264Z,2.63
2022-10-04T15:16:42.792Z,2.42
2022-10-04T15:19:33.219Z,2.38
2022-10-04T15:22:27.239Z,2.20
2022-10-04T15:24:55.187Z,2.37
2022-10-04T15:27:34.475Z,2.30
2022-10-04T15:30:10.549Z,2.30
2022-10-04T15:33:07.404Z,1.90
2022-10-04T15:35:52.223Z,2.77
2022-10-04T15:38:38.044Z,2.73
2022-10-04T15:41:19.024Z,2.03
2022-10-04T15:44:30.123Z,2.23
2022-10-04T15:47:08.703Z,2.10
2022-10-04T15:50:04.620Z,2.07
2022-10-04T15:53:03.567Z,1.90
2022-10-04T15:55:36.663Z,1.83
2022-10-04T15:58:22.580Z,1.83
2022-10-04T16:01:19.871Z,1.97
2022-10-04T16:04:10.217Z,2.00
2022-10-04T16:07:09.080Z,1.90
2022-10-04T16:09:39.643Z,1.97
2022-10-04T16:12:24.749Z,1.70
2022-10-04T16:14:56.539Z,2.00
2022-10-04T16:17:32.739Z,2.23
2022-10-04T16:20:02.927Z,2.10
2022-10-04T16:22:32.415Z,2.10
2022-10-04T16:25:25.505Z,2.20
2022-10-04T16:27:58.206Z,2.43
2022-10-04T16:31:07.190Z,2.37
2022-10-04T16:33:55.858Z,2.40
2022-10-04T16:36:28.319Z,2.60
2022-10-04T16:39:18.728Z,2.33
2022-10-04T16:41:53.180Z,3.00
2022-10-04T16:44:53.228Z,2.30
2022-10-04T17:32:55.063Z,3.70
2022-10-04T17:35:44.399Z,3.13
2022-10-04T17:38:19.804Z,3.17
2022-10-04T17:41:08.035Z,3.57
2022-10-04T17:43:56.219Z,5.73
2022-10-04T17:46:42.286Z,4.43
2022-10-04T17:49:42.646Z,3.27
2022-10-04T17:52:52.577Z,3.33
2022-10-04T17:55:28.711Z,3.60
2022-10-04T17:58:19.235Z,3.83
2022-10-04T18:00:54.750Z,3.90
2022-10-04T18:03:37.919Z,3.83
2022-10-04T18:06:30.774Z,4.87
2022-10-04T18:09:11.931Z,4.10
2022-10-04T18:11:47.259Z,5.03
2022-10-04T18:14:29.267Z,4.10
2022-10-04T18:17:42.224Z,3.50
2022-10-04T18:20:27.202Z,3.83
2022-10-04T18:23:02.607Z,4.60
2022-10-04T18:25:32.284Z,4.27
2022-10-04T18:28:08.592Z,3.63
2022-10-04T18:30:52.472Z,3.63
2022-10-04T18:33:26.621Z,3.87
2022-10-04T18:36:13.252Z,3.47
2022-10-04T18:38:43.610Z,4.10
2022-10-04T18:41:18.971Z,3.97
2022-10-04T18:44:01.062Z,4.30
2022-10-04T18:46:39.900Z,4.00
2022-10-04T18:49:21.108Z,3.80
2022-10-04T18:52:09.660Z,4.00
2022-10-04T18:55:03.299Z,3.80
2022-10-04T18:58:17.976Z,4.47
2022-10-04T19:01:18.667Z,4.50
2022-10-04T19:04:00.050Z,4.10
2022-10-04T19:06:30.691Z,4.23
2022-10-04T19:09:14.152Z,5.00
2022-10-04T19:11:51.118Z,4.23
2022-10-04T19:14:24.137Z,3.90
2022-10-04T19:17:01.714Z,4.17
2022-10-04T19:19:37.583Z,3.93
2022-10-04T19:22:40.620Z,3.73
2022-10-04T19:25:16.296Z,4.57
2022-10-04T19:27:50.772Z,4.40
2022-10-04T19:30:25.826Z,4.57
2022-10-04T19:33:05.236Z,4.50
2022-10-04T19:36:15.782Z,3.73
2022-10-04T19:39:15.127Z,4.00
2022-10-04T19:42:12.278Z,4.03
2022-10-04T19:44:54.665Z,5.10
2022-10-04T19:47:48.881Z,4.33
2022-10-04T19:50:21.224Z,5.67
2022-10-04T19:52:55.528Z,6.77
2022-10-04T19:55:42.330Z,4.30
2022-10-04T19:58:20.500Z,4.07
2022-10-04T20:00:49.255Z,4.53
2022-10-04T20:03:16.539Z,4.47
2022-10-04T20:05:46.232Z,4.07
2022-10-04T20:08:15.711Z,4.10
2022-10-04T20:10:43.911Z,6.13
2022-10-04T20:13:11.010Z,8.53
2022-10-04T20:15:38.807Z,7.40
2022-10-04T20:18:31.048Z,9.37
2022-10-04T20:20:58.881Z,6.97
2022-10-04T20:23:40.764Z,5.53
2022-10-04T20:26:45.521Z,4.00
2022-10-04T20:29:38.312Z,3.97
2022-10-04T20:32:13.465Z,3.80
2022-10-04T20:34:40.427Z,4.00
2022-10-04T20:37:09.588Z,3.87
2022-10-04T20:39:43.439Z,3.83
2022-10-04T20:42:22.726Z,4.30
2022-10-04T20:44:55.556Z,4.10
2022-10-04T20:47:42.115Z,3.53
2022-10-04T20:50:33.683Z,4.27
2022-10-04T20:53:06.073Z,4.20
2022-10-04T20:55:38.982Z,4.13
2022-10-04T20:58:32.152Z,4.30
2022-10-04T21:01:09.615Z,3.83
2022-10-04T21:03:37.145Z,4.53
2022-10-04T21:06:09.634Z,4.40
2022-10-04T21:08:37.531Z,4.50
2022-10-04T21:11:20.224Z,5.10
2022-10-04T21:13:52.270Z,5.60
2022-10-04T21:16:39.589Z,5.73
2022-10-04T21:19:38.838Z,6.07
2022-10-04T21:22:15.598Z,5.80
2022-10-04T21:24:51.875Z,5.20
2022-10-04T21:27:35.616Z,4.20
2022-10-04T21:30:12.619Z,4.80
2022-10-04T21:32:39.908Z,4.93
2022-10-04T21:35:08.579Z,6.37
2022-10-04T21:37:36.252Z,6.77
2022-10-04T21:40:05.150Z,8.40
2022-10-04T21:42:32.278Z,8.13
2022-10-04T21:44:59.235Z,7.40
2022-10-04T21:47:26.235Z,7.40
2022-10-04T21:49:53.911Z,6.10
2022-10-04T21:52:21.071Z,5.73
2022-10-04T21:54:47.947Z,4.97
2022-10-04T21:57:15.158Z,6.43
2022-10-04T21:59:42.202Z,5.70
2022-10-04T22:02:09.308Z,6.03
2022-10-04T22:04:38.037Z,6.30
2022-10-04T22:07:05.126Z,6.17
2022-10-04T22:09:33.913Z,6.37
2022-10-04T22:12:00.927Z,6.43
2022-10-04T22:14:27.820Z,5.73
2022-10-04T22:16:54.971Z,6.63
2022-10-04T22:19:21.928Z,6.27
2022-10-04T22:21:48.888Z,5.77
2022-10-04T22:24:22.158Z,7.07
2022-10-04T22:26:49.620Z,6.67
2022-10-04T22:29:18.283Z,6.47
2022-10-04T22:31:52.539Z,6.47
2022-10-04T22:34:21.240Z,6.00
2022-10-04T22:36:49.761Z,6.23
2022-10-04T22:39:21.018Z,5.97
2022-10-04T22:41:56.487Z,5.73
2022-10-04T22:44:35.451Z,5.27
2022-10-04T22:47:04.659Z,5.07
2022-10-04T22:49:34.424Z,5.80
2022-10-04T22:52:06.284Z,5.53
2022-10-04T22:54:35.476Z,5.80
2022-10-04T22:57:02.635Z,5.83
2022-10-04T22:59:39.618Z,6.93
2022-10-04T23:02:15.835Z,6.13
2022-10-04T23:04:51.395Z,6.60
2022-10-04T23:07:19.443Z,5.43
2022-10-04T23:09:47.076Z,6.27
2022-10-04T23:12:14.632Z,6.03
2022-10-04T23:14:41.722Z,5.87
2022-10-04T23:17:21.605Z,6.17
2022-10-04T23:19:49.409Z,6.20
2022-10-04T23:22:18.339Z,5.47
2022-10-04T23:24:45.383Z,5.77
2022-10-04T23:27:18.065Z,5.33
2022-10-04T23:29:47.208Z,6.77
2022-10-04T23:32:18.728Z,6.00
2022-10-04T23:34:50.917Z,6.17
2022-10-04T23:37:26.182Z,5.90
2022-10-04T23:39:53.383Z,6.00
2022-10-04T23:42:33.592Z,6.60
2022-10-04T23:45:01.755Z,5.70
2022-10-04T23:47:36.221Z,5.67
2022-10-04T23:50:22.422Z,5.20
